Russian Mission, Alaska
Current Conditions -  °F | °C
As of 11:56 AM on Friday 28 Nov 2014 (Local Time) from PARS Reporting Station
Clear Clear  
Wind Chill: 19°   Ceiling: Unl
Heat Index: 19°   Visibility: 10mi
Dew Point: 16°   Wind: 0mph
Humidity: 89%   Direction: NA
Pressure: 30.1"   Gusts: NA
Location:  61.78°N, 161.32°W
Report Text: PARS 282056Z AUTO 00000KT 10SM CLR M07/M09 A3010 RMK AO2 TSNO 53010 60000 T10721088 SNE25 P0000 SLP197 $
Loading
Personal Weather Stations






























Interactive Weather Map New forecast layout! Learn more

10-Day Weather Forecast

Advertisements
Track Severe Weather on mobile